sensor_id;sensor_type;location;lat;lon;timestamp;P1;durP1;ratioP1;P2;durP2;ratioP2
3571;SDS011;7958;53.024;12.970;2023-06-19T00:02:16;14.13;;;12.50;;
3571;SDS011;7958;53.024;12.970;2023-06-19T00:04:42;13.67;;;12.27;;
3571;SDS011;7958;53.024;12.970;2023-06-19T00:07:10;12.97;;;11.67;;
3571;SDS011;7958;53.024;12.970;2023-06-19T00:09:36;13.40;;;12.20;;
3571;SDS011;7958;53.024;12.970;2023-06-19T00:12:03;13.33;;;12.00;;
3571;SDS011;7958;53.024;12.970;2023-06-19T00:14:30;13.47;;;12.23;;
3571;SDS011;7958;53.024;12.970;2023-06-19T00:16:57;13.37;;;12.07;;
3571;SDS011;7958;53.024;12.970;2023-06-19T00:19:25;13.70;;;12.30;;
3571;SDS011;7958;53.024;12.970;2023-06-19T00:21:52;13.50;;;12.13;;
3571;SDS011;7958;53.024;12.970;2023-06-19T00:24:23;12.73;;;11.53;;
3571;SDS011;7958;53.024;12.970;2023-06-19T00:26:50;12.73;;;11.27;;
3571;SDS011;7958;53.024;12.970;2023-06-19T00:29:16;12.17;;;11.00;;
3571;SDS011;7958;53.024;12.970;2023-06-19T00:31:43;13.37;;;11.97;;
3571;SDS011;7958;53.024;12.970;2023-06-19T00:34:09;13.93;;;12.53;;
3571;SDS011;7958;53.024;12.970;2023-06-19T00:36:36;13.83;;;12.23;;
3571;SDS011;7958;53.024;12.970;2023-06-19T00:39:05;13.60;;;12.20;;
3571;SDS011;7958;53.024;12.970;2023-06-19T00:41:33;13.60;;;12.30;;
3571;SDS011;7958;53.024;12.970;2023-06-19T00:44:01;13.53;;;11.47;;
3571;SDS011;7958;53.024;12.970;2023-06-19T00:46:27;12.60;;;11.40;;
3571;SDS011;7958;53.024;12.970;2023-06-19T00:48:54;14.67;;;13.27;;
3571;SDS011;7958;53.024;12.970;2023-06-19T00:51:20;12.43;;;10.87;;
3571;SDS011;7958;53.024;12.970;2023-06-19T00:53:47;12.63;;;11.43;;
3571;SDS011;7958;53.024;12.970;2023-06-19T00:56:13;12.47;;;11.27;;
3571;SDS011;7958;53.024;12.970;2023-06-19T00:58:42;11.60;;;10.50;;
3571;SDS011;7958;53.024;12.970;2023-06-19T01:01:09;11.77;;;10.67;;
3571;SDS011;7958;53.024;12.970;2023-06-19T01:03:35;12.33;;;11.20;;
3571;SDS011;7958;53.024;12.970;2023-06-19T01:06:02;12.17;;;10.97;;
3571;SDS011;7958;53.024;12.970;2023-06-19T01:08:37;12.53;;;11.30;;
3571;SDS011;7958;53.024;12.970;2023-06-19T01:11:09;13.30;;;12.00;;
3571;SDS011;7958;53.024;12.970;2023-06-19T01:13:39;13.03;;;11.63;;
3571;SDS011;7958;53.024;12.970;2023-06-19T01:16:10;12.43;;;11.23;;
3571;SDS011;7958;53.024;12.970;2023-06-19T01:18:37;12.30;;;11.10;;
3571;SDS011;7958;53.024;12.970;2023-06-19T01:21:11;13.10;;;11.83;;
3571;SDS011;7958;53.024;12.970;2023-06-19T01:23:39;12.33;;;11.13;;
3571;SDS011;7958;53.024;12.970;2023-06-19T01:26:05;15.00;;;11.97;;
3571;SDS011;7958;53.024;12.970;2023-06-19T01:28:32;12.23;;;11.03;;
3571;SDS011;7958;53.024;12.970;2023-06-19T01:30:59;13.23;;;11.87;;
3571;SDS011;7958;53.024;12.970;2023-06-19T01:33:27;12.10;;;11.00;;
3571;SDS011;7958;53.024;12.970;2023-06-19T01:35:54;13.20;;;11.80;;
3571;SDS011;7958;53.024;12.970;2023-06-19T01:38:21;12.73;;;11.53;;
3571;SDS011;7958;53.024;12.970;2023-06-19T01:40:51;13.27;;;11.97;;
3571;SDS011;7958;53.024;12.970;2023-06-19T01:43:19;12.87;;;11.67;;
3571;SDS011;7958;53.024;12.970;2023-06-19T01:45:45;11.93;;;10.83;;
3571;SDS011;7958;53.024;12.970;2023-06-19T01:48:12;14.60;;;11.43;;
3571;SDS011;7958;53.024;12.970;2023-06-19T01:50:39;13.63;;;11.60;;
3571;SDS011;7958;53.024;12.970;2023-06-19T01:53:06;12.20;;;11.00;;
3571;SDS011;7958;53.024;12.970;2023-06-19T01:55:32;11.70;;;10.20;;
3571;SDS011;7958;53.024;12.970;2023-06-19T01:58:00;11.77;;;10.57;;
3571;SDS011;7958;53.024;12.970;2023-06-19T02:00:27;12.70;;;11.40;;
3571;SDS011;7958;53.024;12.970;2023-06-19T02:02:53;13.47;;;12.17;;
3571;SDS011;7958;53.024;12.970;2023-06-19T02:05:19;13.50;;;11.97;;
3571;SDS011;7958;53.024;12.970;2023-06-19T02:07:47;11.27;;;10.17;;
3571;SDS011;7958;53.024;12.970;2023-06-19T02:10:13;11.37;;;10.27;;
3571;SDS011;7958;53.024;12.970;2023-06-19T02:12:40;12.33;;;11.13;;
3571;SDS011;7958;53.024;12.970;2023-06-19T02:15:08;12.97;;;11.70;;
3571;SDS011;7958;53.024;12.970;2023-06-19T02:17:35;12.40;;;11.20;;
3571;SDS011;7958;53.024;12.970;2023-06-19T02:20:02;12.37;;;11.07;;
3571;SDS011;7958;53.024;12.970;2023-06-19T02:22:32;11.83;;;10.73;;
3571;SDS011;7958;53.024;12.970;2023-06-19T02:24:59;12.97;;;11.63;;
3571;SDS011;7958;53.024;12.970;2023-06-19T02:27:25;13.10;;;11.80;;
3571;SDS011;7958;53.024;12.970;2023-06-19T02:29:51;13.27;;;11.13;;
3571;SDS011;7958;53.024;12.970;2023-06-19T02:32:19;12.13;;;10.73;;
3571;SDS011;7958;53.024;12.970;2023-06-19T02:34:46;11.87;;;10.77;;
3571;SDS011;7958;53.024;12.970;2023-06-19T02:37:12;12.00;;;10.80;;
3571;SDS011;7958;53.024;12.970;2023-06-19T02:39:38;11.73;;;10.63;;
3571;SDS011;7958;53.024;12.970;2023-06-19T02:42:05;12.67;;;11.37;;
3571;SDS011;7958;53.024;12.970;2023-06-19T02:44:32;10.80;;;9.80;;
3571;SDS011;7958;53.024;12.970;2023-06-19T02:46:59;11.73;;;10.63;;
3571;SDS011;7958;53.024;12.970;2023-06-19T02:49:27;11.50;;;10.40;;
3571;SDS011;7958;53.024;12.970;2023-06-19T02:51:53;11.60;;;10.50;;
3571;SDS011;7958;53.024;12.970;2023-06-19T02:54:20;11.57;;;10.37;;
3571;SDS011;7958;53.024;12.970;2023-06-19T02:56:46;11.73;;;10.07;;
3571;SDS011;7958;53.024;12.970;2023-06-19T02:59:13;11.50;;;10.30;;
3571;SDS011;7958;53.024;12.970;2023-06-19T03:01:40;11.57;;;10.37;;
3571;SDS011;7958;53.024;12.970;2023-06-19T03:04:07;11.20;;;10.17;;
3571;SDS011;7958;53.024;12.970;2023-06-19T03:06:35;13.30;;;10.00;;
3571;SDS011;7958;53.024;12.970;2023-06-19T03:09:04;11.83;;;10.63;;
3571;SDS011;7958;53.024;12.970;2023-06-19T03:11:36;11.30;;;10.20;;
3571;SDS011;7958;53.024;12.970;2023-06-19T03:14:03;11.87;;;10.87;;
3571;SDS011;7958;53.024;12.970;2023-06-19T03:16:32;11.03;;;9.90;;
3571;SDS011;7958;53.024;12.970;2023-06-19T03:18:59;11.67;;;10.47;;
3571;SDS011;7958;53.024;12.970;2023-06-19T03:21:25;11.57;;;10.47;;
3571;SDS011;7958;53.024;12.970;2023-06-19T03:23:53;12.23;;;11.07;;
3571;SDS011;7958;53.024;12.970;2023-06-19T03:26:20;10.77;;;9.67;;
3571;SDS011;7958;53.024;12.970;2023-06-19T03:28:46;11.90;;;10.80;;
3571;SDS011;7958;53.024;12.970;2023-06-19T03:31:13;11.27;;;10.07;;
3571;SDS011;7958;53.024;12.970;2023-06-19T03:33:39;10.80;;;9.80;;
3571;SDS011;7958;53.024;12.970;2023-06-19T03:36:06;11.43;;;10.03;;
3571;SDS011;7958;53.024;12.970;2023-06-19T03:38:33;12.23;;;10.97;;
3571;SDS011;7958;53.024;12.970;2023-06-19T03:41:01;10.33;;;9.43;;
3571;SDS011;7958;53.024;12.970;2023-06-19T03:43:28;11.60;;;10.50;;
3571;SDS011;7958;53.024;12.970;2023-06-19T03:45:54;11.37;;;10.30;;
3571;SDS011;7958;53.024;12.970;2023-06-19T03:48:21;12.10;;;11.00;;
3571;SDS011;7958;53.024;12.970;2023-06-19T03:50:47;12.10;;;11.00;;
3571;SDS011;7958;53.024;12.970;2023-06-19T03:53:13;12.00;;;10.90;;
3571;SDS011;7958;53.024;12.970;2023-06-19T03:55:40;12.20;;;11.00;;
3571;SDS011;7958;53.024;12.970;2023-06-19T03:58:08;12.03;;;10.60;;
3571;SDS011;7958;53.024;12.970;2023-06-19T04:00:34;14.20;;;10.73;;
3571;SDS011;7958;53.024;12.970;2023-06-19T04:03:00;11.93;;;10.73;;
3571;SDS011;7958;53.024;12.970;2023-06-19T04:05:27;12.87;;;10.60;;
3571;SDS011;7958;53.024;12.970;2023-06-19T04:07:53;14.00;;;12.60;;
3571;SDS011;7958;53.024;12.970;2023-06-19T04:10:20;15.47;;;12.43;;
3571;SDS011;7958;53.024;12.970;2023-06-19T04:12:46;13.73;;;12.40;;
3571;SDS011;7958;53.024;12.970;2023-06-19T04:15:14;13.90;;;12.60;;
3571;SDS011;7958;53.024;12.970;2023-06-19T04:17:40;19.20;;;13.63;;
3571;SDS011;7958;53.024;12.970;2023-06-19T04:20:07;14.40;;;12.90;;
3571;SDS011;7958;53.024;12.970;2023-06-19T04:22:36;13.90;;;11.80;;
3571;SDS011;7958;53.024;12.970;2023-06-19T04:25:02;13.63;;;12.20;;
3571;SDS011;7958;53.024;12.970;2023-06-19T04:27:31;13.77;;;12.47;;
3571;SDS011;7958;53.024;12.970;2023-06-19T04:29:58;12.53;;;11.30;;
3571;SDS011;7958;53.024;12.970;2023-06-19T04:32:25;15.60;;;14.10;;
3571;SDS011;7958;53.024;12.970;2023-06-19T04:34:52;13.63;;;12.33;;
3571;SDS011;7958;53.024;12.970;2023-06-19T04:37:18;15.30;;;13.80;;
3571;SDS011;7958;53.024;12.970;2023-06-19T04:39:45;15.00;;;13.50;;
3571;SDS011;7958;53.024;12.970;2023-06-19T04:42:12;15.50;;;14.10;;
3571;SDS011;7958;53.024;12.970;2023-06-19T04:44:44;14.17;;;12.77;;
3571;SDS011;7958;53.024;12.970;2023-06-19T04:47:10;15.17;;;13.70;;
3571;SDS011;7958;53.024;12.970;2023-06-19T04:49:38;14.43;;;13.00;;
3571;SDS011;7958;53.024;12.970;2023-06-19T04:52:04;15.40;;;13.67;;
3571;SDS011;7958;53.024;12.970;2023-06-19T04:54:31;13.60;;;12.40;;
3571;SDS011;7958;53.024;12.970;2023-06-19T04:56:58;15.80;;;13.70;;
3571;SDS011;7958;53.024;12.970;2023-06-19T04:59:25;14.77;;;13.27;;
3571;SDS011;7958;53.024;12.970;2023-06-19T05:01:52;15.43;;;13.60;;
3571;SDS011;7958;53.024;12.970;2023-06-19T05:04:19;13.77;;;12.37;;
3571;SDS011;7958;53.024;12.970;2023-06-19T05:06:48;14.20;;;12.90;;
3571;SDS011;7958;53.024;12.970;2023-06-19T05:09:15;13.60;;;12.30;;
3571;SDS011;7958;53.024;12.970;2023-06-19T05:11:42;13.40;;;12.13;;
3571;SDS011;7958;53.024;12.970;2023-06-19T05:14:08;17.10;;;12.13;;
3571;SDS011;7958;53.024;12.970;2023-06-19T05:16:35;13.87;;;12.50;;
3571;SDS011;7958;53.024;12.970;2023-06-19T05:19:01;15.17;;;13.63;;
3571;SDS011;7958;53.024;12.970;2023-06-19T05:21:28;13.73;;;12.40;;
3571;SDS011;7958;53.024;12.970;2023-06-19T05:23:56;14.90;;;13.50;;
3571;SDS011;7958;53.024;12.970;2023-06-19T05:26:22;15.93;;;14.03;;
3571;SDS011;7958;53.024;12.970;2023-06-19T05:28:48;16.40;;;13.83;;
3571;SDS011;7958;53.024;12.970;2023-06-19T05:31:15;15.13;;;13.17;;
3571;SDS011;7958;53.024;12.970;2023-06-19T05:33:43;15.83;;;14.23;;
3571;SDS011;7958;53.024;12.970;2023-06-19T05:36:10;12.90;;;11.70;;
3571;SDS011;7958;53.024;12.970;2023-06-19T05:38:37;14.43;;;12.93;;
3571;SDS011;7958;53.024;12.970;2023-06-19T05:41:04;15.20;;;13.70;;
3571;SDS011;7958;53.024;12.970;2023-06-19T05:43:31;15.03;;;13.63;;
3571;SDS011;7958;53.024;12.970;2023-06-19T05:45:58;17.10;;;13.73;;
3571;SDS011;7958;53.024;12.970;2023-06-19T05:48:24;14.80;;;13.20;;
3571;SDS011;7958;53.024;12.970;2023-06-19T05:50:51;15.33;;;13.90;;
3571;SDS011;7958;53.024;12.970;2023-06-19T05:53:18;15.43;;;14.10;;
3571;SDS011;7958;53.024;12.970;2023-06-19T05:55:44;15.97;;;14.03;;
3571;SDS011;7958;53.024;12.970;2023-06-19T05:58:12;14.53;;;13.13;;
3571;SDS011;7958;53.024;12.970;2023-06-19T06:00:39;15.00;;;13.50;;
3571;SDS011;7958;53.024;12.970;2023-06-19T06:03:05;15.77;;;14.27;;
3571;SDS011;7958;53.024;12.970;2023-06-19T06:05:32;14.60;;;13.13;;
3571;SDS011;7958;53.024;12.970;2023-06-19T06:07:58;15.10;;;13.70;;
3571;SDS011;7958;53.024;12.970;2023-06-19T06:10:25;13.43;;;12.13;;
3571;SDS011;7958;53.024;12.970;2023-06-19T06:12:51;13.63;;;12.27;;
3571;SDS011;7958;53.024;12.970;2023-06-19T06:15:19;14.77;;;13.37;;
3571;SDS011;7958;53.024;12.970;2023-06-19T06:17:45;13.07;;;11.87;;
3571;SDS011;7958;53.024;12.970;2023-06-19T06:20:13;14.53;;;13.13;;
3571;SDS011;7958;53.024;12.970;2023-06-19T06:22:39;14.70;;;13.20;;
3571;SDS011;7958;53.024;12.970;2023-06-19T06:25:06;13.70;;;12.40;;
3571;SDS011;7958;53.024;12.970;2023-06-19T06:27:33;15.13;;;13.80;;
3571;SDS011;7958;53.024;12.970;2023-06-19T06:30:00;13.50;;;12.20;;
3571;SDS011;7958;53.024;12.970;2023-06-19T06:32:28;13.90;;;12.60;;
3571;SDS011;7958;53.024;12.970;2023-06-19T06:34:56;14.63;;;13.23;;
3571;SDS011;7958;53.024;12.970;2023-06-19T06:37:22;13.43;;;12.00;;
3571;SDS011;7958;53.024;12.970;2023-06-19T06:39:48;14.03;;;12.73;;
3571;SDS011;7958;53.024;12.970;2023-06-19T06:42:15;14.10;;;12.73;;
3571;SDS011;7958;53.024;12.970;2023-06-19T06:44:42;16.00;;;12.43;;
3571;SDS011;7958;53.024;12.970;2023-06-19T06:47:08;13.93;;;12.63;;
3571;SDS011;7958;53.024;12.970;2023-06-19T06:49:36;14.60;;;12.13;;
3571;SDS011;7958;53.024;12.970;2023-06-19T06:52:02;15.40;;;13.90;;
3571;SDS011;7958;53.024;12.970;2023-06-19T06:54:29;13.03;;;11.73;;
3571;SDS011;7958;53.024;12.970;2023-06-19T06:56:56;13.60;;;12.27;;
3571;SDS011;7958;53.024;12.970;2023-06-19T06:59:23;15.73;;;14.23;;
3571;SDS011;7958;53.024;12.970;2023-06-19T07:01:50;14.70;;;13.30;;
3571;SDS011;7958;53.024;12.970;2023-06-19T07:26:35;16.20;;;14.50;;
3571;SDS011;7958;53.024;12.970;2023-06-19T07:29:03;15.90;;;14.20;;
3571;SDS011;7958;53.024;12.970;2023-06-19T07:31:29;15.17;;;13.87;;
3571;SDS011;7958;53.024;12.970;2023-06-19T07:33:55;14.30;;;12.90;;
3571;SDS011;7958;53.024;12.970;2023-06-19T07:36:22;15.30;;;13.83;;
3571;SDS011;7958;53.024;12.970;2023-06-19T07:38:48;15.60;;;13.77;;
3571;SDS011;7958;53.024;12.970;2023-06-19T07:41:14;16.70;;;13.60;;
3571;SDS011;7958;53.024;12.970;2023-06-19T07:43:43;16.40;;;14.80;;
3571;SDS011;7958;53.024;12.970;2023-06-19T07:46:09;20.00;;;14.53;;
3571;SDS011;7958;53.024;12.970;2023-06-19T07:48:35;15.93;;;14.53;;
3571;SDS011;7958;53.024;12.970;2023-06-19T07:51:02;14.97;;;13.57;;
3571;SDS011;7958;53.024;12.970;2023-06-19T07:53:29;16.50;;;14.97;;
3571;SDS011;7958;53.024;12.970;2023-06-19T07:55:56;14.90;;;13.60;;
3571;SDS011;7958;53.024;12.970;2023-06-19T07:58:22;15.77;;;13.97;;
3571;SDS011;7958;53.024;12.970;2023-06-19T08:00:50;14.63;;;13.33;;
3571;SDS011;7958;53.024;12.970;2023-06-19T08:03:16;15.23;;;13.80;;
3571;SDS011;7958;53.024;12.970;2023-06-19T08:05:42;15.07;;;13.60;;
3571;SDS011;7958;53.024;12.970;2023-06-19T08:08:09;15.00;;;13.60;;
3571;SDS011;7958;53.024;12.970;2023-06-19T08:10:37;15.27;;;13.87;;
3571;SDS011;7958;53.024;12.970;2023-06-19T08:13:04;15.30;;;13.80;;
3571;SDS011;7958;53.024;12.970;2023-06-19T08:15:30;15.57;;;14.20;;
3571;SDS011;7958;53.024;12.970;2023-06-19T08:17:58;12.93;;;11.83;;
3571;SDS011;7958;53.024;12.970;2023-06-19T08:20:24;15.47;;;13.97;;
3571;SDS011;7958;53.024;12.970;2023-06-19T08:22:50;15.20;;;13.80;;
3571;SDS011;7958;53.024;12.970;2023-06-19T08:25:17;16.07;;;14.47;;
3571;SDS011;7958;53.024;12.970;2023-06-19T08:27:43;14.50;;;13.13;;
3571;SDS011;7958;53.024;12.970;2023-06-19T08:30:11;14.70;;;13.30;;
3571;SDS011;7958;53.024;12.970;2023-06-19T08:32:38;14.50;;;13.17;;
3571;SDS011;7958;53.024;12.970;2023-06-19T08:35:06;13.17;;;11.93;;
3571;SDS011;7958;53.024;12.970;2023-06-19T08:37:33;14.47;;;13.17;;
3571;SDS011;7958;53.024;12.970;2023-06-19T08:40:00;14.03;;;12.83;;
3571;SDS011;7958;53.024;12.970;2023-06-19T08:42:27;14.07;;;12.87;;
3571;SDS011;7958;53.024;12.970;2023-06-19T08:44:54;14.70;;;12.80;;
3571;SDS011;7958;53.024;12.970;2023-06-19T08:47:20;17.00;;;12.70;;
3571;SDS011;7958;53.024;12.970;2023-06-19T08:49:47;13.80;;;12.53;;
3571;SDS011;7958;53.024;12.970;2023-06-19T08:52:14;14.50;;;13.07;;
3571;SDS011;7958;53.024;12.970;2023-06-19T08:54:41;16.50;;;13.37;;
3571;SDS011;7958;53.024;12.970;2023-06-19T08:57:09;14.73;;;13.30;;
3571;SDS011;7958;53.024;12.970;2023-06-19T08:59:36;14.63;;;13.43;;
3571;SDS011;7958;53.024;12.970;2023-06-19T09:02:02;13.60;;;12.03;;
3571;SDS011;7958;53.024;12.970;2023-06-19T09:04:29;13.53;;;12.23;;
3571;SDS011;7958;53.024;12.970;2023-06-19T09:06:56;13.87;;;12.70;;
3571;SDS011;7958;53.024;12.970;2023-06-19T09:09:26;14.67;;;13.17;;
3571;SDS011;7958;53.024;12.970;2023-06-19T09:11:59;13.87;;;12.47;;
3571;SDS011;7958;53.024;12.970;2023-06-19T09:14:32;13.57;;;12.03;;
3571;SDS011;7958;53.024;12.970;2023-06-19T09:17:00;15.03;;;13.63;;
3571;SDS011;7958;53.024;12.970;2023-06-19T09:19:27;13.93;;;12.77;;
3571;SDS011;7958;53.024;12.970;2023-06-19T09:21:58;14.43;;;13.23;;
3571;SDS011;7958;53.024;12.970;2023-06-19T09:24:34;14.93;;;13.63;;
3571;SDS011;7958;53.024;12.970;2023-06-19T09:27:05;14.53;;;13.03;;
3571;SDS011;7958;53.024;12.970;2023-06-19T09:29:35;15.13;;;13.73;;
3571;SDS011;7958;53.024;12.970;2023-06-19T09:32:13;15.23;;;13.83;;
3571;SDS011;7958;53.024;12.970;2023-06-19T09:34:40;15.77;;;14.27;;
3571;SDS011;7958;53.024;12.970;2023-06-19T09:37:06;15.10;;;13.70;;
3571;SDS011;7958;53.024;12.970;2023-06-19T09:39:37;14.10;;;12.90;;
3571;SDS011;7958;53.024;12.970;2023-06-19T09:42:04;15.53;;;14.23;;
3571;SDS011;7958;53.024;12.970;2023-06-19T09:44:41;15.23;;;13.73;;
3571;SDS011;7958;53.024;12.970;2023-06-19T09:47:11;14.50;;;13.20;;
3571;SDS011;7958;53.024;12.970;2023-06-19T09:49:44;16.27;;;14.60;;
3571;SDS011;7958;53.024;12.970;2023-06-19T09:52:14;15.13;;;13.67;;
3571;SDS011;7958;53.024;12.970;2023-06-19T09:54:42;16.07;;;14.47;;
3571;SDS011;7958;53.024;12.970;2023-06-19T09:57:09;15.27;;;13.90;;
3571;SDS011;7958;53.024;12.970;2023-06-19T09:59:37;14.73;;;13.43;;
3571;SDS011;7958;53.024;12.970;2023-06-19T10:02:05;14.20;;;12.90;;
3571;SDS011;7958;53.024;12.970;2023-06-19T10:04:41;14.80;;;13.53;;
3571;SDS011;7958;53.024;12.970;2023-06-19T10:07:17;15.90;;;13.07;;
3571;SDS011;7958;53.024;12.970;2023-06-19T10:09:58;15.37;;;13.87;;
3571;SDS011;7958;53.024;12.970;2023-06-19T10:12:39;14.17;;;12.87;;
3571;SDS011;7958;53.024;12.970;2023-06-19T10:15:15;15.63;;;12.83;;
3571;SDS011;7958;53.024;12.970;2023-06-19T10:17:43;13.93;;;12.57;;
3571;SDS011;7958;53.024;12.970;2023-06-19T10:20:20;13.37;;;12.07;;
3571;SDS011;7958;53.024;12.970;2023-06-19T10:22:51;15.60;;;13.90;;
3571;SDS011;7958;53.024;12.970;2023-06-19T10:25:31;15.17;;;13.50;;
3571;SDS011;7958;53.024;12.970;2023-06-19T10:27:58;13.60;;;12.37;;
3571;SDS011;7958;53.024;12.970;2023-06-19T10:30:26;16.77;;;15.30;;
3571;SDS011;7958;53.024;12.970;2023-06-19T10:32:52;15.47;;;14.10;;
3571;SDS011;7958;53.024;12.970;2023-06-19T10:35:19;17.30;;;13.80;;
3571;SDS011;7958;53.024;12.970;2023-06-19T10:37:48;16.40;;;14.90;;
3571;SDS011;7958;53.024;12.970;2023-06-19T10:40:15;16.40;;;14.90;;
3571;SDS011;7958;53.024;12.970;2023-06-19T10:42:43;16.10;;;14.50;;
3571;SDS011;7958;53.024;12.970;2023-06-19T10:45:10;15.60;;;14.00;;
3571;SDS011;7958;53.024;12.970;2023-06-19T10:47:40;14.00;;;11.70;;
3571;SDS011;7958;53.024;12.970;2023-06-19T10:50:11;13.37;;;12.17;;
3571;SDS011;7958;53.024;12.970;2023-06-19T10:52:41;13.10;;;12.00;;
3571;SDS011;7958;53.024;12.970;2023-06-19T10:55:12;14.97;;;13.67;;
3571;SDS011;7958;53.024;12.970;2023-06-19T10:57:39;13.93;;;12.43;;
3571;SDS011;7958;53.024;12.970;2023-06-19T11:00:09;15.90;;;13.97;;
3571;SDS011;7958;53.024;12.970;2023-06-19T11:02:39;13.27;;;12.17;;
3571;SDS011;7958;53.024;12.970;2023-06-19T11:05:08;15.20;;;13.80;;
3571;SDS011;7958;53.024;12.970;2023-06-19T11:07:35;15.00;;;13.67;;
3571;SDS011;7958;53.024;12.970;2023-06-19T11:10:02;13.57;;;12.30;;
3571;SDS011;7958;53.024;12.970;2023-06-19T11:12:28;14.67;;;13.37;;
3571;SDS011;7958;53.024;12.970;2023-06-19T11:14:55;12.53;;;11.33;;
3571;SDS011;7958;53.024;12.970;2023-06-19T11:17:23;15.80;;;12.67;;
3571;SDS011;7958;53.024;12.970;2023-06-19T11:19:49;15.93;;;14.40;;
3571;SDS011;7958;53.024;12.970;2023-06-19T11:22:16;15.53;;;13.93;;
3571;SDS011;7958;53.024;12.970;2023-06-19T11:24:43;14.97;;;13.10;;
3571;SDS011;7958;53.024;12.970;2023-06-19T11:27:16;14.77;;;13.37;;
3571;SDS011;7958;53.024;12.970;2023-06-19T11:29:43;12.37;;;11.30;;
3571;SDS011;7958;53.024;12.970;2023-06-19T11:32:12;11.97;;;10.87;;
3571;SDS011;7958;53.024;12.970;2023-06-19T11:34:41;13.57;;;12.17;;
3571;SDS011;7958;53.024;12.970;2023-06-19T11:37:12;12.00;;;10.87;;
3571;SDS011;7958;53.024;12.970;2023-06-19T11:39:39;12.40;;;11.17;;
3571;SDS011;7958;53.024;12.970;2023-06-19T11:42:06;13.17;;;12.03;;
3571;SDS011;7958;53.024;12.970;2023-06-19T11:44:33;12.90;;;11.47;;
3571;SDS011;7958;53.024;12.970;2023-06-19T11:46:59;27.80;;;13.80;;
3571;SDS011;7958;53.024;12.970;2023-06-19T11:49:27;13.50;;;12.20;;
3571;SDS011;7958;53.024;12.970;2023-06-19T11:51:58;12.17;;;10.10;;
3571;SDS011;7958;53.024;12.970;2023-06-19T11:54:26;12.53;;;11.33;;
3571;SDS011;7958;53.024;12.970;2023-06-19T11:56:52;13.33;;;11.33;;
3571;SDS011;7958;53.024;12.970;2023-06-19T11:59:19;12.10;;;10.90;;
3571;SDS011;7958;53.024;12.970;2023-06-19T12:01:45;12.13;;;11.13;;
3571;SDS011;7958;53.024;12.970;2023-06-19T12:04:12;15.43;;;11.07;;
3571;SDS011;7958;53.024;12.970;2023-06-19T12:06:40;12.00;;;10.90;;
3571;SDS011;7958;53.024;12.970;2023-06-19T12:09:07;11.03;;;10.13;;
3571;SDS011;7958;53.024;12.970;2023-06-19T12:11:34;11.33;;;10.23;;
3571;SDS011;7958;53.024;12.970;2023-06-19T12:14:01;11.93;;;10.93;;
3571;SDS011;7958;53.024;12.970;2023-06-19T12:16:27;11.47;;;10.40;;
3571;SDS011;7958;53.024;12.970;2023-06-19T12:18:54;12.60;;;11.30;;
3571;SDS011;7958;53.024;12.970;2023-06-19T12:21:21;11.20;;;10.10;;
3571;SDS011;7958;53.024;12.970;2023-06-19T12:23:47;11.47;;;10.57;;
3571;SDS011;7958;53.024;12.970;2023-06-19T12:26:15;11.53;;;10.37;;
3571;SDS011;7958;53.024;12.970;2023-06-19T12:28:41;12.23;;;11.07;;
3571;SDS011;7958;53.024;12.970;2023-06-19T12:31:08;11.23;;;10.33;;
3571;SDS011;7958;53.024;12.970;2023-06-19T12:33:35;12.23;;;11.03;;
3571;SDS011;7958;53.024;12.970;2023-06-19T12:36:07;10.03;;;9.23;;
3571;SDS011;7958;53.024;12.970;2023-06-19T12:38:34;11.87;;;10.87;;
3571;SDS011;7958;53.024;12.970;2023-06-19T12:41:03;12.30;;;10.20;;
3571;SDS011;7958;53.024;12.970;2023-06-19T12:43:31;10.53;;;9.57;;
3571;SDS011;7958;53.024;12.970;2023-06-19T12:45:57;12.67;;;11.10;;
3571;SDS011;7958;53.024;12.970;2023-06-19T12:48:25;11.47;;;10.47;;
3571;SDS011;7958;53.024;12.970;2023-06-19T12:50:51;12.90;;;11.00;;
3571;SDS011;7958;53.024;12.970;2023-06-19T12:53:18;12.10;;;11.00;;
3571;SDS011;7958;53.024;12.970;2023-06-19T12:55:46;12.30;;;11.27;;
3571;SDS011;7958;53.024;12.970;2023-06-19T12:58:13;12.50;;;11.30;;
3571;SDS011;7958;53.024;12.970;2023-06-19T13:00:41;10.93;;;9.97;;
3571;SDS011;7958;53.024;12.970;2023-06-19T13:03:08;11.80;;;10.80;;
3571;SDS011;7958;53.024;12.970;2023-06-19T13:05:34;11.90;;;10.70;;
3571;SDS011;7958;53.024;12.970;2023-06-19T13:08:02;11.97;;;10.80;;
3571;SDS011;7958;53.024;12.970;2023-06-19T13:10:28;11.90;;;10.90;;
3571;SDS011;7958;53.024;12.970;2023-06-19T13:12:55;11.90;;;10.73;;
3571;SDS011;7958;53.024;12.970;2023-06-19T13:15:23;13.93;;;10.27;;
3571;SDS011;7958;53.024;12.970;2023-06-19T13:17:51;11.20;;;10.27;;
3571;SDS011;7958;53.024;12.970;2023-06-19T13:20:18;11.07;;;9.97;;
3571;SDS011;7958;53.024;12.970;2023-06-19T13:22:45;11.67;;;10.47;;
3571;SDS011;7958;53.024;12.970;2023-06-19T13:25:11;11.87;;;10.90;;
3571;SDS011;7958;53.024;12.970;2023-06-19T13:27:38;11.23;;;10.13;;
3571;SDS011;7958;53.024;12.970;2023-06-19T13:30:05;9.57;;;8.87;;
3571;SDS011;7958;53.024;12.970;2023-06-19T13:32:33;15.20;;;11.70;;
3571;SDS011;7958;53.024;12.970;2023-06-19T13:35:02;11.10;;;10.07;;
3571;SDS011;7958;53.024;12.970;2023-06-19T13:37:28;11.40;;;10.40;;
3571;SDS011;7958;53.024;12.970;2023-06-19T13:39:55;12.17;;;11.07;;
3571;SDS011;7958;53.024;12.970;2023-06-19T13:42:22;11.40;;;10.40;;
3571;SDS011;7958;53.024;12.970;2023-06-19T13:44:48;11.00;;;10.00;;
3571;SDS011;7958;53.024;12.970;2023-06-19T13:47:14;11.03;;;9.93;;
3571;SDS011;7958;53.024;12.970;2023-06-19T13:49:41;10.37;;;9.37;;
3571;SDS011;7958;53.024;12.970;2023-06-19T13:52:08;9.93;;;9.10;;
3571;SDS011;7958;53.024;12.970;2023-06-19T13:54:35;9.90;;;9.10;;
3571;SDS011;7958;53.024;12.970;2023-06-19T13:57:02;9.93;;;9.03;;
3571;SDS011;7958;53.024;12.970;2023-06-19T13:59:29;10.10;;;9.10;;
3571;SDS011;7958;53.024;12.970;2023-06-19T14:01:55;8.93;;;8.20;;
3571;SDS011;7958;53.024;12.970;2023-06-19T14:04:21;10.33;;;8.53;;
3571;SDS011;7958;53.024;12.970;2023-06-19T14:06:48;9.10;;;8.40;;
3571;SDS011;7958;53.024;12.970;2023-06-19T14:09:15;9.03;;;8.10;;
3571;SDS011;7958;53.024;12.970;2023-06-19T14:11:42;9.80;;;9.00;;
3571;SDS011;7958;53.024;12.970;2023-06-19T14:14:09;8.40;;;7.80;;
3571;SDS011;7958;53.024;12.970;2023-06-19T14:16:35;8.97;;;8.17;;
3571;SDS011;7958;53.024;12.970;2023-06-19T14:19:02;8.00;;;7.40;;
3571;SDS011;7958;53.024;12.970;2023-06-19T14:21:28;9.73;;;8.50;;
3571;SDS011;7958;53.024;12.970;2023-06-19T14:23:54;8.90;;;8.00;;
3571;SDS011;7958;53.024;12.970;2023-06-19T14:26:22;8.33;;;7.63;;
3571;SDS011;7958;53.024;12.970;2023-06-19T14:28:48;8.97;;;8.10;;
3571;SDS011;7958;53.024;12.970;2023-06-19T14:31:20;9.30;;;7.63;;
3571;SDS011;7958;53.024;12.970;2023-06-19T14:33:46;8.50;;;7.30;;
3571;SDS011;7958;53.024;12.970;2023-06-19T14:36:12;7.63;;;7.03;;
3571;SDS011;7958;53.024;12.970;2023-06-19T14:38:39;9.00;;;8.20;;
3571;SDS011;7958;53.024;12.970;2023-06-19T14:41:05;7.73;;;7.10;;
3571;SDS011;7958;53.024;12.970;2023-06-19T14:43:33;7.60;;;7.10;;
3571;SDS011;7958;53.024;12.970;2023-06-19T14:46:00;16.13;;;7.20;;
3571;SDS011;7958;53.024;12.970;2023-06-19T14:48:28;8.53;;;6.90;;
3571;SDS011;7958;53.024;12.970;2023-06-19T14:50:56;8.07;;;7.40;;
3571;SDS011;7958;53.024;12.970;2023-06-19T14:53:22;7.67;;;7.00;;
3571;SDS011;7958;53.024;12.970;2023-06-19T14:55:48;12.50;;;7.90;;
3571;SDS011;7958;53.024;12.970;2023-06-19T14:58:14;8.40;;;7.70;;
3571;SDS011;7958;53.024;12.970;2023-06-19T15:00:42;8.20;;;7.50;;
3571;SDS011;7958;53.024;12.970;2023-06-19T15:03:08;8.70;;;8.07;;